Burns Pinion Ridge Reserve, California Weather observations

Data are for 10 minute period ending at time listed.
 Day   Time   Solar   Ave.   Ave.  Ave.  Vector  Max.   Baro.   Total    
  of    of     Rad.   Air    Rel.  Wind   Wind   Wind  Press.  Precip.   
Year   Day            Temp.  Hum.  Speed  Dir.   Gust                    
2014   (PST)  Kw/m2    F      %     mph   deg.    mph    mb.     in.     
-------------------------------------------------------------------------
 264    3:10   0.00   56.9    56    0.4   326     2.2   874.5    0.00 
 264    3:20   0.00   56.3    57    1.2   351     2.6   874.5    0.00 
 264    3:30   0.00   55.8    58    0.0   327     0.4   874.6    0.00 
 264    3:40   0.00   55.8    57    0.0     0     0.0   874.6    0.00 
 264    3:50   0.00   55.7    57    0.0     0     0.0   874.6    0.00 
 264    4:00   0.00   54.6    59    0.9   342     1.7   874.6    0.00 
 264    4:10   0.00   54.8    59    0.3   321     1.4   874.7    0.00 
 264    4:20   0.00   55.0    58    0.0     0     0.0   874.8    0.00 
 264    4:30   0.00   54.5    59    0.0     0     0.0   874.9    0.00 
 264    4:40   0.00   54.5    59    0.0     0     0.0   874.9    0.00 
 264    4:50   0.00   54.9    58    0.6   242     1.3   874.9    0.00 
 264    5:00   0.00   54.8    58    0.0     0     0.0   875.0    0.00 
 264    5:10   0.00   54.9    58    0.0     0     0.0   875.0    0.00 
 264    5:20   0.00   54.9    58    0.7   305     3.0   875.1    0.00 
 264    5:30   0.00   54.8    59    0.2   317     1.2   875.3    0.00 
 264    5:40   0.00   55.0    58    0.0     0     0.0   875.4    0.00 
 264    5:50   0.01   54.9    59    0.0     0     0.0   875.5    0.00 
 264    6:00   0.01   54.9    59    0.2   322     1.1   875.6    0.00 
 264    6:10   0.02   55.6    58    0.8   296     1.8   875.7    0.00 
 264    6:20   0.03   56.2    57    0.1   293     1.1   875.8    0.00 
 264    6:30   0.03   57.6    54    0.0   278     0.8   875.9    0.00 
 264    6:40   0.13   62.2    46    0.4   307     1.9   876.0    0.00 
 264    6:50   0.20   69.3    36    0.8   336     2.0   876.0    0.00 
 264    7:00   0.23   72.3    32    0.7   341     2.0   876.0    0.00 
 264    7:10   0.27   74.2    31    0.2   325     1.7   875.9    0.00 
 264    7:20   0.31   76.2    29    0.8   337     2.1   876.0    0.00 
 264    7:30   0.35   75.6    29    1.5   341     3.0   876.2    0.00 
 264    7:40   0.38   75.6    30    1.3    19     3.2   876.5    0.00 
 264    7:50   0.42   76.5    29    3.2    65     6.4   876.7    0.00 
 264    8:00   0.45   76.2    29    3.1    38     6.6   876.9    0.00 
 264    8:10   0.49   77.0    29    3.3    33     7.6   876.9    0.00 
 264    8:20   0.52   76.8    29    3.6    57     6.7   877.1    0.00 
 264    8:30   0.55   77.8    28    2.6    96     6.2   877.1    0.00 
 264    8:40   0.58   78.5    28    2.4    58     5.0   877.2    0.00 
 264    8:50   0.61   78.0    28    2.7    74     6.6   877.3    0.00 
 264    9:00   0.64   77.5    29    3.2    98     5.8   877.3    0.00 
 264    9:10   0.67   78.6    28    2.1    49     6.1   875.4    0.00 
 264    9:20   0.70   78.6    28    3.1    50     6.7   877.2    0.00 
 264    9:30   0.72   78.3    28    4.0    92     7.6   877.2    0.00 
 264    9:40   0.74   79.3    27    4.2   142     8.8   877.2    0.00 
 264    9:50   0.77   79.6    26    5.4   205    12.1   877.2    0.00 
 264   10:00   0.78   79.7    27    4.0   151    12.0   877.2    0.00 
 264   10:10   0.79   80.6    26    4.9   133    11.5   877.2    0.00 
 264   10:20   0.81   80.9    26    4.4   145    10.0   877.1    0.00 
 264   10:30   0.83   81.2    26    5.6   183    13.2   877.0    0.00 
 264   10:40   0.84   81.6    25    7.1   172    14.4   877.0    0.00 
 264   10:50   0.86   80.9    25    6.2   177    17.4   876.9    0.00 
 264   11:00   0.87   80.5    25    7.0   214    14.5   876.9    0.00 
 264   11:10   0.88   80.6    25    7.4   195    18.0   876.9    0.00 
 264   11:20   0.88   81.4    25    6.9   166    15.7   876.8    0.00 
 264   11:30   0.89   80.8    24    6.6   189    16.8   876.8    0.00 
 264   11:40   0.88   81.7    24    8.0   177    15.6   876.7    0.00 
 264   11:50   0.88   81.8    24    6.4   201    12.1   876.7    0.00 
 264   12:00   0.89   82.7    23    5.0   179     9.9   876.6    0.00 
 264   12:10   0.88   82.6    22    6.3   196    12.9   876.6    0.00 
 264   12:20   0.88   81.4    23    6.2   187    14.9   876.5    0.00 
 264   12:30   0.87   82.1    23    4.4   200    10.8   876.4    0.00 
 264   12:40   0.86   83.2    23    7.1   169    15.1   876.3    0.00 
 264   12:50   0.84   82.3    24    5.8   204    13.9   876.2    0.00 
 264   13:00   0.83   82.4    23    7.3   157    16.1   876.1    0.00 
 264   13:10   0.82   83.0    23    5.3   208    14.9   876.0    0.00 
 264   13:20   0.80   82.8    23    6.1   204    14.3   875.9    0.00 
 264   13:30   0.78   82.2    24    7.3   210    16.7   875.9    0.00 
 264   13:40   0.76   81.4    25    7.0   199    14.6   875.9    0.00 
 264   13:50   0.74   81.2    25    7.9   204    17.4   875.9    0.00 
 264   14:00   0.72   82.0    24    7.1   194    15.9   875.9    0.00 
 264   14:10   0.69   81.7    24    7.9   197    16.7   875.9    0.00 
 264   14:20   0.67   81.1    25    7.8   196    16.6   875.9    0.00 
 264   14:30   0.64   81.7    24    7.7   200    15.2   875.9    0.00 
 264   14:40   0.61   81.8    25    7.0   209    14.4   875.9    0.00 
 264   14:50   0.58   80.9    26    7.1   220    14.8   875.8    0.00 
 264   15:00   0.55   80.7    26    8.4   217    14.2   875.7    0.00 
 264   15:10   0.51   80.9    26    7.0   210    12.8   875.7    0.00 
 264   15:20   0.48   81.1    26    6.5   212    12.9   875.7    0.00 
 264   15:30   0.44   80.5    26    9.3   216    16.8   875.7    0.00 
 264   15:40   0.41   80.2    27    8.7   215    21.5   875.6    0.00 
 264   15:50   0.37   80.2    27    8.7   215    15.4   875.6    0.00 
 264   16:00   0.33   79.7    27    7.7   212    13.5   875.5    0.00 
 264   16:10   0.29   79.2    28    9.2   213    16.9   875.5    0.00 
 264   16:20   0.26   79.3    27    5.6   212    11.8   875.5    0.00 
 264   16:30   0.22   79.2    27    6.6   202    13.7   875.5    0.00 
 264   16:40   0.19   78.7    27    6.3   199    13.8   875.5    0.00 
 264   16:50   0.15   78.7    28    5.4   177    11.3   875.5    0.00 
 264   17:00   0.12   78.9    27    5.7   163    14.0   875.5    0.00 
 264   17:10   0.09   78.3    28    5.0   180    13.6   875.5    0.00 
 264   17:20   0.06   76.1    29    8.0   202    14.1   875.4    0.00 
 264   17:30   0.02   74.9    30    6.4   198    12.6   875.4    0.00 
 264   17:40   0.01   74.3    31    4.7   205     8.8   875.4    0.00 
 264   17:50   0.00   73.8    31    6.1   202    12.3   875.5    0.00 
 264   18:00   0.00   73.5    31    6.3   209    12.3   875.5    0.00 
 264   18:10   0.00   73.1    31    5.2   201    10.2   875.5    0.00 
 264   18:20   0.00   72.8    30    4.9   208    10.2   875.5    0.00 
 264   18:30   0.00   72.5    30    4.7   203     9.2   875.5    0.00 
 264   18:40   0.00   72.2    30    4.5   201     8.5   875.5    0.00 
 264   18:50   0.00   72.1    30    4.1   186     8.7   875.6    0.00 
 264   19:00   0.00   71.6    30    4.7   186    11.3   875.6    0.00 
 264   19:10   0.00   71.4    31    4.7   187     8.9   875.7    0.00 
 264   19:20   0.00   71.5    31    5.1   201     8.5   875.8    0.00 
 264   19:30   0.00   71.2    31    4.6   184     7.7   875.9    0.00 
 264   19:40   0.00   71.1    32    4.7   189     9.7   875.9    0.00 
 264   19:50   0.00   71.1    32    5.4   196    10.7   875.9    0.00 
 264   20:00   0.00   71.5    32    5.9   206    10.0   876.0    0.00 
 264   20:10   0.00   71.7    32    6.4   204    10.2   876.1    0.00 
 264   20:20   0.00   71.7    31    5.1   216    11.2   876.2    0.00 
 264   20:30   0.00   71.6    31    3.6   226     7.8   876.3    0.00 
 264   20:40   0.00   71.4    32    5.1   209     9.3   876.3    0.00 
 264   20:50   0.00   71.2    32    3.5   224     6.9   876.3    0.00 
 264   21:00   0.00   70.6    33    2.5   200     5.0   876.3    0.00 
 264   21:10   0.00   69.6    34    2.5   155     4.3   876.4    0.00 
 264   21:20   0.00   68.0    36    3.3   166     4.7   876.4    0.00 
 264   21:30   0.00   68.3    36    3.4   190     5.9   876.5    0.00 
 264   21:40   0.00   69.3    35    3.8   183     5.9   876.5    0.00 
 264   21:50   0.00   68.3    36    3.8   183     6.5   876.5    0.00 
 264   22:00   0.00   69.1    35    4.6   207     6.4   876.5    0.00 
 264   22:10   0.00   70.0    34    3.9   204     6.1   876.5    0.00 
 264   22:20   0.00   68.9    35    3.4   207     5.0   876.6    0.00 
 264   22:30   0.00   68.2    36    2.4   220     4.0   876.6    0.00 
 264   22:40   0.00   68.2    36    3.4   222     5.8   876.6    0.00 
 264   22:50   0.00   68.5    36    3.1   234     4.9   876.6    0.00 
 264   23:00   0.00   68.5    36    3.0   230     5.0   876.6    0.00 
 264   23:10   0.00   68.4    36    3.7   229     5.6   876.6    0.00 
 264   23:20   0.00   68.3    36    2.6   237     4.7   876.6    0.00 
 264   23:30   0.00   67.5    37    2.8   234     3.8   876.7    0.00 
 264   23:40   0.00   65.6    40    2.0   234     3.4   876.8    0.00 
 264   23:50   0.00   64.0    43    1.9   224     3.7   876.8    0.00 
 265    0:00   0.00   63.1    45    3.0   209     5.2   876.8    0.00 
 265    0:10   0.00   64.0    44    2.9   230     3.9   876.8    0.00 
 265    0:20   0.00   65.2    41    3.0   243     4.4   876.9    0.00 
 265    0:30   0.00   64.7    42    2.5   238     3.7   876.9    0.00 
 265    0:40   0.00   63.1    45    2.4   248     3.4   876.8    0.00 
 265    0:50   0.00   61.4    48    2.0   262     2.8   876.7    0.00 
 265    1:00   0.00   61.2    49    1.4   264     3.0   876.7    0.00 
 265    1:10   0.00   61.3    49    2.5   248     3.4   876.6    0.00 
 265    1:20   0.00   63.6    45    3.4   268     4.4   876.6    0.00 
 265    1:30   0.00   63.6    45    2.3   265     3.7   876.5    0.00 
 265    1:40   0.00   62.2    48    2.1   252     2.6   876.5    0.00 
 265    1:50   0.00   60.9    50    2.3   259     2.9   876.5    0.00 
 265    2:00   0.00   60.6    51    1.5   251     2.5   876.5    0.00 
 265    2:10   0.00   60.2    52    1.1   269     2.0   876.5    0.00 
 265    2:20   0.00   59.7    53    1.1   287     2.4   876.5    0.00 
 265    2:30   0.00   60.9    51    1.8   263     2.6   876.5    0.00 
 265    2:40   0.00   59.6    53    1.2   272     2.0   876.5    0.00 
 265    2:50   0.00   59.1    54    0.3   264     2.8   876.5    0.00 
 265    3:00   0.00   58.6    55    0.0   143     0.6   876.5    0.00 

Return to Burns Pinion Ridge Reserve graphs page.


Western Regional Climate Center,wrcc@dri.edu